Aviation Digital Data Service (ADDS)

Output produced by METARs form (2029 UTC 24 October 2014)
found at http://aviationweather.gov/adds/metars/
 
KLAX 241736Z 2418/2524 13005KT P6SM FEW250 
     FM242100 26010KT P6SM SKC 
     FM250300 VRB03KT P6SM FEW100 
     FM250800 VRB03KT 4SM BR BKN007 
     FM251500 VRB03KT 5SM BR OVC010 
     FM251800 24006KT 5SM HZ OVC012